sensor_id;sensor_type;location;lat;lon;timestamp;pressure;altitude;pressure_sealevel;temperature;humidity
45789;BME280;31492;54.856;26.318;2023-05-16T00:01:21;1019.3;;;19.5;44.3
45789;BME280;31492;54.856;26.318;2023-05-16T00:06:21;1019.2;;;19.3;45.6
45789;BME280;31492;54.856;26.318;2023-05-16T00:11:21;1019.2;;;19.1;47.4
45789;BME280;31492;54.856;26.318;2023-05-16T00:16:21;1019.3;;;19;48.8
45789;BME280;31492;54.856;26.318;2023-05-16T00:21:21;1019.3;;;18.8;50.4
45789;BME280;31492;54.856;26.318;2023-05-16T00:26:33;1019.3;;;18.5;51.8
45789;BME280;31492;54.856;26.318;2023-05-16T00:31:21;1019.3;;;18.3;53.2
45789;BME280;31492;54.856;26.318;2023-05-16T00:36:22;1019.2;;;18.1;54.1
45789;BME280;31492;54.856;26.318;2023-05-16T00:41:35;1019.1;;;18;54.9
45789;BME280;31492;54.856;26.318;2023-05-16T00:46:39;1019.2;;;17.8;55.4
45789;BME280;31492;54.856;26.318;2023-05-16T00:51:53;1019.1;;;17.8;55.8
45789;BME280;31492;54.856;26.318;2023-05-16T00:56:31;1019.1;;;17.7;56.3
45789;BME280;31492;54.856;26.318;2023-05-16T01:01:22;1018.9;;;17.5;57
45789;BME280;31492;54.856;26.318;2023-05-16T01:06:21;1018.7;;;17.5;57.5
45789;BME280;31492;54.856;26.318;2023-05-16T01:11:46;1018.7;;;17.4;58.1
45789;BME280;31492;54.856;26.318;2023-05-16T01:16:23;1018.8;;;17.3;58.3
45789;BME280;31492;54.856;26.318;2023-05-16T01:21:23;1018.8;;;17.2;58.9
45789;BME280;31492;54.856;26.318;2023-05-16T01:26:35;1018.9;;;17.1;59.1
45789;BME280;31492;54.856;26.318;2023-05-16T01:31:21;1018.9;;;17;59.3
45789;BME280;31492;54.856;26.318;2023-05-16T01:36:32;1018.9;;;17.1;59.5
45789;BME280;31492;54.856;26.318;2023-05-16T01:41:22;1018.9;;;17.1;59.8
45789;BME280;31492;54.856;26.318;2023-05-16T01:46:23;1018.9;;;17;60
45789;BME280;31492;54.856;26.318;2023-05-16T01:51:47;1018.8;;;17;60.1
45789;BME280;31492;54.856;26.318;2023-05-16T01:56:50;1018.8;;;16.8;61.4
45789;BME280;31492;54.856;26.318;2023-05-16T02:01:33;1018.7;;;16.7;61.9
45789;BME280;31492;54.856;26.318;2023-05-16T02:06:45;1018.6;;;16.7;61.9
45789;BME280;31492;54.856;26.318;2023-05-16T02:11:45;1018.5;;;16.7;62
45789;BME280;31492;54.856;26.318;2023-05-16T02:16:21;1018.5;;;16.6;62.4
45789;BME280;31492;54.856;26.318;2023-05-16T02:21:43;1018.5;;;16.5;63.3
45789;BME280;31492;54.856;26.318;2023-05-16T02:26:33;1018.4;;;16.5;62.8
45789;BME280;31492;54.856;26.318;2023-05-16T02:31:41;1018.4;;;16.5;62.9
45789;BME280;31492;54.856;26.318;2023-05-16T02:36:21;1018.4;;;16.4;63
45789;BME280;31492;54.856;26.318;2023-05-16T02:41:33;1018.4;;;16.4;62.7
45789;BME280;31492;54.856;26.318;2023-05-16T02:46:28;1018.5;;;16.5;62.8
45789;BME280;31492;54.856;26.318;2023-05-16T02:51:35;1018.5;;;16.4;63.2
45789;BME280;31492;54.856;26.318;2023-05-16T02:56:33;1018.6;;;16.4;63.8
45789;BME280;31492;54.856;26.318;2023-05-16T03:01:27;1018.5;;;16.4;64
45789;BME280;31492;54.856;26.318;2023-05-16T03:06:35;1018.5;;;16.3;63.9
45789;BME280;31492;54.856;26.318;2023-05-16T03:11:21;1018.5;;;16.3;63.9
45789;BME280;31492;54.856;26.318;2023-05-16T03:16:31;1018.4;;;16.4;63.6
45789;BME280;31492;54.856;26.318;2023-05-16T03:21:35;1018.4;;;16.4;63.5
45789;BME280;31492;54.856;26.318;2023-05-16T03:26:33;1018.3;;;16.4;63.4
45789;BME280;31492;54.856;26.318;2023-05-16T03:31:31;1018.2;;;16.5;62.9
45789;BME280;31492;54.856;26.318;2023-05-16T03:36:21;1018.1;;;16.6;63
45789;BME280;31492;54.856;26.318;2023-05-16T03:41:21;1018.1;;;16.6;62.9
45789;BME280;31492;54.856;26.318;2023-05-16T03:46:31;1018.1;;;16.6;63.2
45789;BME280;31492;54.856;26.318;2023-05-16T03:51:21;1018;;;16.5;63.4
45789;BME280;31492;54.856;26.318;2023-05-16T03:56:21;1017.9;;;16.5;63.2
45789;BME280;31492;54.856;26.318;2023-05-16T04:01:21;1018;;;16.6;63.1
45789;BME280;31492;54.856;26.318;2023-05-16T04:06:33;1018;;;16.6;63.3
45789;BME280;31492;54.856;26.318;2023-05-16T04:11:27;1018.1;;;16.5;63.4
45789;BME280;31492;54.856;26.318;2023-05-16T04:16:31;1018.1;;;16.5;63.5
45789;BME280;31492;54.856;26.318;2023-05-16T04:21:59;1018.1;;;16.5;63.4
45789;BME280;31492;54.856;26.318;2023-05-16T04:26:27;1018;;;16.5;63.3
45789;BME280;31492;54.856;26.318;2023-05-16T04:31:21;1018;;;16.5;63.4
45789;BME280;31492;54.856;26.318;2023-05-16T04:36:43;1018;;;16.5;63.6
45789;BME280;31492;54.856;26.318;2023-05-16T04:41:31;1018;;;16.5;63.6
45789;BME280;31492;54.856;26.318;2023-05-16T04:46:47;1018;;;16.5;63.5
45789;BME280;31492;54.856;26.318;2023-05-16T04:51:39;1018;;;16.5;63.9
45789;BME280;31492;54.856;26.318;2023-05-16T04:56:45;1018;;;16.5;63.9
45789;BME280;31492;54.856;26.318;2023-05-16T05:01:33;1018;;;16.5;63.8
45789;BME280;31492;54.856;26.318;2023-05-16T05:06:27;1017.9;;;16.5;63.8
45789;BME280;31492;54.856;26.318;2023-05-16T05:11:21;1017.9;;;16.5;64.4
45789;BME280;31492;54.856;26.318;2023-05-16T05:16:45;1017.8;;;16.4;64.9
45789;BME280;31492;54.856;26.318;2023-05-16T05:21:33;1017.9;;;16.3;64.9
45789;BME280;31492;54.856;26.318;2023-05-16T05:26:21;1017.9;;;16.2;65.3
45789;BME280;31492;54.856;26.318;2023-05-16T05:31:21;1017.9;;;16.2;65.6
45789;BME280;31492;54.856;26.318;2023-05-16T05:36:21;1018;;;16.1;65.8
45789;BME280;31492;54.856;26.318;2023-05-16T05:41:31;1017.9;;;16;66.3
45789;BME280;31492;54.856;26.318;2023-05-16T05:46:22;1017.9;;;15.9;66.6
45789;BME280;31492;54.856;26.318;2023-05-16T05:51:37;1017.9;;;16;66.6
45789;BME280;31492;54.856;26.318;2023-05-16T05:56:35;1017.9;;;15.9;67
45789;BME280;31492;54.856;26.318;2023-05-16T06:01:33;1017.9;;;15.9;67.1
45789;BME280;31492;54.856;26.318;2023-05-16T06:06:33;1018;;;15.9;67.1
45789;BME280;31492;54.856;26.318;2023-05-16T06:11:21;1017.9;;;16;66.9
45789;BME280;31492;54.856;26.318;2023-05-16T06:16:47;1017.8;;;16;67.2
45789;BME280;31492;54.856;26.318;2023-05-16T06:21:31;1017.8;;;16;67.2
45789;BME280;31492;54.856;26.318;2023-05-16T06:26:39;1017.8;;;16.1;67.4
45789;BME280;31492;54.856;26.318;2023-05-16T06:31:21;1017.8;;;16.1;67.3
45789;BME280;31492;54.856;26.318;2023-05-16T06:36:21;1017.8;;;16.1;67.1
45789;BME280;31492;54.856;26.318;2023-05-16T06:41:21;1017.7;;;16.1;67.3
45789;BME280;31492;54.856;26.318;2023-05-16T06:46:31;1017.7;;;16.1;67.3
45789;BME280;31492;54.856;26.318;2023-05-16T06:51:31;1017.6;;;16.2;67.1
45789;BME280;31492;54.856;26.318;2023-05-16T06:56:35;1017.6;;;16.1;67.8
45789;BME280;31492;54.856;26.318;2023-05-16T07:01:37;1017.6;;;16.1;68
45789;BME280;31492;54.856;26.318;2023-05-16T07:06:21;1017.7;;;16.1;68.2
45789;BME280;31492;54.856;26.318;2023-05-16T07:11:21;1017.7;;;16.1;68.5
45789;BME280;31492;54.856;26.318;2023-05-16T07:16:21;1017.6;;;16.2;68.6
45789;BME280;31492;54.856;26.318;2023-05-16T07:21:21;1017.6;;;16.2;68.5
45789;BME280;31492;54.856;26.318;2023-05-16T07:26:43;1017.7;;;16.3;68.4
45789;BME280;31492;54.856;26.318;2023-05-16T07:31:21;1017.7;;;16.4;68.4
45789;BME280;31492;54.856;26.318;2023-05-16T07:36:35;1017.7;;;16.4;68.5
45789;BME280;31492;54.856;26.318;2023-05-16T07:41:31;1017.8;;;16.3;68.9
45789;BME280;31492;54.856;26.318;2023-05-16T07:46:31;1017.9;;;16.3;69
45789;BME280;31492;54.856;26.318;2023-05-16T07:51:35;1017.9;;;16.3;68.9
45789;BME280;31492;54.856;26.318;2023-05-16T07:56:21;1017.9;;;16.3;69.5
45789;BME280;31492;54.856;26.318;2023-05-16T08:01:31;1017.9;;;16.3;69
45789;BME280;31492;54.856;26.318;2023-05-16T08:06:21;1018;;;16.3;69.2
45789;BME280;31492;54.856;26.318;2023-05-16T08:11:59;1018;;;16.3;69.3
45789;BME280;31492;54.856;26.318;2023-05-16T08:16:39;1018;;;16.1;70
45789;BME280;31492;54.856;26.318;2023-05-16T08:21:35;1018;;;16.1;70.2
45789;BME280;31492;54.856;26.318;2023-05-16T08:26:35;1018;;;16.1;70.2
45789;BME280;31492;54.856;26.318;2023-05-16T08:31:31;1018.1;;;16.1;70.4
45789;BME280;31492;54.856;26.318;2023-05-16T08:36:21;1018.1;;;16.1;70.5
45789;BME280;31492;54.856;26.318;2023-05-16T08:41:28;1018.1;;;16.2;70.4
45789;BME280;31492;54.856;26.318;2023-05-16T08:46:22;1018.1;;;16.3;70.3
45789;BME280;31492;54.856;26.318;2023-05-16T08:51:33;1018;;;16.3;70.4
45789;BME280;31492;54.856;26.318;2023-05-16T08:56:32;1018.1;;;16.2;70.4
45789;BME280;31492;54.856;26.318;2023-05-16T09:01:30;1018.1;;;16.3;70.2
45789;BME280;31492;54.856;26.318;2023-05-16T09:06:33;1018;;;16.4;70.3
45789;BME280;31492;54.856;26.318;2023-05-16T09:11:22;1018.1;;;16.4;70.1
45789;BME280;31492;54.856;26.318;2023-05-16T09:16:35;1018.1;;;16.4;70.5
45789;BME280;31492;54.856;26.318;2023-05-16T09:21:33;1018.2;;;16.4;70.3
45789;BME280;31492;54.856;26.318;2023-05-16T09:26:21;1018.2;;;16.4;70.2
45789;BME280;31492;54.856;26.318;2023-05-16T09:31:22;1018.3;;;16.5;70.1
45789;BME280;31492;54.856;26.318;2023-05-16T09:36:42;1018.3;;;16.5;70.3
45789;BME280;31492;54.856;26.318;2023-05-16T09:41:32;1018.4;;;16.4;70.5
45789;BME280;31492;54.856;26.318;2023-05-16T09:46:43;1018.4;;;16.4;70.6
45789;BME280;31492;54.856;26.318;2023-05-16T09:51:21;1018.4;;;16.4;70.7
45789;BME280;31492;54.856;26.318;2023-05-16T09:56:31;1018.4;;;16.5;70.6
45789;BME280;31492;54.856;26.318;2023-05-16T10:01:35;1018.4;;;16.6;70.7
45789;BME280;31492;54.856;26.318;2023-05-16T10:06:27;1018.4;;;16.8;70.6
45789;BME280;31492;54.856;26.318;2023-05-16T10:11:31;1018.2;;;17.1;69.9
45789;BME280;31492;54.856;26.318;2023-05-16T10:16:21;1018.2;;;18.1;68.7
45789;BME280;31492;54.856;26.318;2023-05-16T10:21:21;1018.2;;;18.6;66.8
45789;BME280;31492;54.856;26.318;2023-05-16T10:26:27;1018.1;;;19.2;65.5
45789;BME280;31492;54.856;26.318;2023-05-16T10:31:37;1018.1;;;19.7;63.6
45789;BME280;31492;54.856;26.318;2023-05-16T10:36:21;1018;;;20.3;61.4
45789;BME280;31492;54.856;26.318;2023-05-16T10:41:35;1018.1;;;20.4;60.4
45789;BME280;31492;54.856;26.318;2023-05-16T10:46:45;1018.1;;;20.1;59.7
45789;BME280;31492;54.856;26.318;2023-05-16T10:51:37;1018;;;19.8;60.1
45789;BME280;31492;54.856;26.318;2023-05-16T10:56:22;1018;;;19.7;60.3
45789;BME280;31492;54.856;26.318;2023-05-16T11:01:22;1018;;;19.7;60.6
45789;BME280;31492;54.856;26.318;2023-05-16T11:06:44;1018;;;19.6;60.7
45789;BME280;31492;54.856;26.318;2023-05-16T11:11:43;1018;;;19.6;60.8
45789;BME280;31492;54.856;26.318;2023-05-16T11:16:35;1018.1;;;19.8;60.1
45789;BME280;31492;54.856;26.318;2023-05-16T11:22:03;1018.1;;;19.8;59.3
45789;BME280;31492;54.856;26.318;2023-05-16T11:26:35;1018.2;;;19.8;59
45789;BME280;31492;54.856;26.318;2023-05-16T11:31:22;1018.2;;;19.7;58.8
45789;BME280;31492;54.856;26.318;2023-05-16T11:36:43;1018.2;;;19.9;58.8
45789;BME280;31492;54.856;26.318;2023-05-16T11:41:21;1018.2;;;19.8;58.4
45789;BME280;31492;54.856;26.318;2023-05-16T11:46:21;1018.3;;;19.8;57.7
45789;BME280;31492;54.856;26.318;2023-05-16T11:51:21;1018.3;;;19.6;57.4
45789;BME280;31492;54.856;26.318;2023-05-16T11:56:33;1018.4;;;19.4;57.9
45789;BME280;31492;54.856;26.318;2023-05-16T12:01:21;1018.5;;;19.3;58.1
45789;BME280;31492;54.856;26.318;2023-05-16T12:06:56;1018.5;;;19.3;57.9
45789;BME280;31492;54.856;26.318;2023-05-16T12:11:22;1018.4;;;19.9;57.3
45789;BME280;31492;54.856;26.318;2023-05-16T12:16:21;1018.4;;;20.6;56.3
45789;BME280;31492;54.856;26.318;2023-05-16T12:21:21;1018.5;;;20.6;55.7
45789;BME280;31492;54.856;26.318;2023-05-16T12:26:33;1018.6;;;20.4;55.6
45789;BME280;31492;54.856;26.318;2023-05-16T12:31:21;1018.6;;;20.2;56
45789;BME280;31492;54.856;26.318;2023-05-16T12:36:21;1018.5;;;20.3;55.6
45789;BME280;31492;54.856;26.318;2023-05-16T12:41:22;1018.5;;;20.5;55.3
45789;BME280;31492;54.856;26.318;2023-05-16T12:46:33;1018.5;;;20.6;55.4
45789;BME280;31492;54.856;26.318;2023-05-16T12:51:48;1018.6;;;20.6;55.9
45789;BME280;31492;54.856;26.318;2023-05-16T12:56:22;1018.7;;;20.6;56
45789;BME280;31492;54.856;26.318;2023-05-16T13:01:32;1018.8;;;20.4;55.3
45789;BME280;31492;54.856;26.318;2023-05-16T13:06:47;1018.8;;;20.2;55.5
45789;BME280;31492;54.856;26.318;2023-05-16T13:11:33;1018.8;;;20.1;56
45789;BME280;31492;54.856;26.318;2023-05-16T13:16:22;1018.8;;;20.2;56
45789;BME280;31492;54.856;26.318;2023-05-16T13:21:31;1018.8;;;20.3;56.1
45789;BME280;31492;54.856;26.318;2023-05-16T13:26:21;1018.8;;;20.3;55.7
45789;BME280;31492;54.856;26.318;2023-05-16T13:31:31;1018.9;;;20.4;55.1
45789;BME280;31492;54.856;26.318;2023-05-16T13:36:21;1018.9;;;20.4;54.7
45789;BME280;31492;54.856;26.318;2023-05-16T13:41:43;1019;;;20.3;54.6
45789;BME280;31492;54.856;26.318;2023-05-16T13:46:22;1019.1;;;20.3;54.1
45789;BME280;31492;54.856;26.318;2023-05-16T13:51:21;1019.1;;;20.5;53.9
45789;BME280;31492;54.856;26.318;2023-05-16T13:56:21;1019.2;;;20.7;54.3
45789;BME280;31492;54.856;26.318;2023-05-16T14:01:47;1019.3;;;20.7;53.5
45789;BME280;31492;54.856;26.318;2023-05-16T14:06:28;1019.3;;;20.7;53.5
45789;BME280;31492;54.856;26.318;2023-05-16T14:11:31;1019.3;;;20.6;52.8
45789;BME280;31492;54.856;26.318;2023-05-16T14:16:31;1019.3;;;20.5;53.2
45789;BME280;31492;54.856;26.318;2023-05-16T14:21:21;1019.4;;;20.6;52.2
45789;BME280;31492;54.856;26.318;2023-05-16T14:26:31;1019.4;;;20.6;51.8
45789;BME280;31492;54.856;26.318;2023-05-16T14:31:32;1019.5;;;20.7;52.1
45789;BME280;31492;54.856;26.318;2023-05-16T14:36:27;1019.5;;;20.6;51.1
45789;BME280;31492;54.856;26.318;2023-05-16T14:41:34;1019.5;;;20.6;51.1
45789;BME280;31492;54.856;26.318;2023-05-16T14:46:35;1019.6;;;20.5;51.2
45789;BME280;31492;54.856;26.318;2023-05-16T14:51:21;1019.6;;;20.5;51.2
45789;BME280;31492;54.856;26.318;2023-05-16T14:56:22;1019.8;;;20.5;51.1
45789;BME280;31492;54.856;26.318;2023-05-16T15:01:22;1019.8;;;20.5;51.5
45789;BME280;31492;54.856;26.318;2023-05-16T15:06:40;1019.8;;;20.4;50.9
45789;BME280;31492;54.856;26.318;2023-05-16T15:11:46;1019.9;;;20.4;51.5
45789;BME280;31492;54.856;26.318;2023-05-16T15:16:48;1019.9;;;20.5;51.7
45789;BME280;31492;54.856;26.318;2023-05-16T15:21:42;1020;;;20.4;51.5
45789;BME280;31492;54.856;26.318;2023-05-16T15:26:34;1020;;;20.4;51.1
45789;BME280;31492;54.856;26.318;2023-05-16T15:31:34;1020.1;;;20.3;50.9
45789;BME280;31492;54.856;26.318;2023-05-16T15:36:28;1020.1;;;20.4;51
45789;BME280;31492;54.856;26.318;2023-05-16T15:41:22;1020.1;;;20.4;51.5
45789;BME280;31492;54.856;26.318;2023-05-16T15:46:44;1020.2;;;20.4;51.4
45789;BME280;31492;54.856;26.318;2023-05-16T15:51:22;1020.2;;;20.3;51.6
45789;BME280;31492;54.856;26.318;2023-05-16T15:56:22;1020.2;;;20.3;51.6
45789;BME280;31492;54.856;26.318;2023-05-16T16:01:32;1020.2;;;20.2;51.4
45789;BME280;31492;54.856;26.318;2023-05-16T16:06:22;1020.2;;;20.2;51.5
45789;BME280;31492;54.856;26.318;2023-05-16T16:11:22;1020.3;;;20.2;50.8
45789;BME280;31492;54.856;26.318;2023-05-16T16:16:34;1020.3;;;20.2;50.8
45789;BME280;31492;54.856;26.318;2023-05-16T16:21:22;1020.3;;;20.2;50.2
45789;BME280;31492;54.856;26.318;2023-05-16T16:26:22;1020.3;;;20.1;49.9
45789;BME280;31492;54.856;26.318;2023-05-16T16:31:26;1020.4;;;20;49.8
45789;BME280;31492;54.856;26.318;2023-05-16T16:36:32;1020.5;;;19.9;50.2
45789;BME280;31492;54.856;26.318;2023-05-16T16:41:42;1020.5;;;19.7;49.8
45789;BME280;31492;54.856;26.318;2023-05-16T16:46:20;1020.4;;;19.6;50.1
45789;BME280;31492;54.856;26.318;2023-05-16T16:51:42;1020.5;;;19.6;50.2
45789;BME280;31492;54.856;26.318;2023-05-16T16:56:54;1020.6;;;19.6;50.2
45789;BME280;31492;54.856;26.318;2023-05-16T17:01:38;1020.7;;;19.5;50.6
45789;BME280;31492;54.856;26.318;2023-05-16T17:06:22;1020.7;;;19.5;50.5
45789;BME280;31492;54.856;26.318;2023-05-16T17:11:34;1020.8;;;19.4;50.8
45789;BME280;31492;54.856;26.318;2023-05-16T17:16:22;1020.9;;;19.3;51.2
45789;BME280;31492;54.856;26.318;2023-05-16T17:21:22;1021;;;19.3;51
45789;BME280;31492;54.856;26.318;2023-05-16T17:26:22;1021;;;19.3;50.7
45789;BME280;31492;54.856;26.318;2023-05-16T17:31:32;1021.1;;;19.3;50.6
45789;BME280;31492;54.856;26.318;2023-05-16T17:36:22;1021.2;;;19.1;50.6
45789;BME280;31492;54.856;26.318;2023-05-16T17:41:22;1021.3;;;19.1;50.9
45789;BME280;31492;54.856;26.318;2023-05-16T17:46:22;1021.4;;;19;51.2
45789;BME280;31492;54.856;26.318;2023-05-16T17:51:43;1021.5;;;19;51.4
45789;BME280;31492;54.856;26.318;2023-05-16T17:56:22;1021.6;;;18.9;51.8
45789;BME280;31492;54.856;26.318;2023-05-16T18:01:54;1021.7;;;18.8;52.2
45789;BME280;31492;54.856;26.318;2023-05-16T18:06:35;1021.7;;;18.8;52.7
45789;BME280;31492;54.856;26.318;2023-05-16T18:11:32;1021.7;;;18.6;53.4
45789;BME280;31492;54.856;26.318;2023-05-16T18:16:36;1021.8;;;18.5;53.6
45789;BME280;31492;54.856;26.318;2023-05-16T18:21:48;1021.9;;;18.4;54.3
45789;BME280;31492;54.856;26.318;2023-05-16T18:26:22;1021.9;;;18.3;54.6
45789;BME280;31492;54.856;26.318;2023-05-16T18:31:35;1022;;;18.1;54.6
45789;BME280;31492;54.856;26.318;2023-05-16T18:36:23;1022;;;18;54.7
45789;BME280;31492;54.856;26.318;2023-05-16T18:41:22;1022.1;;;17.8;54.7
45789;BME280;31492;54.856;26.318;2023-05-16T18:46:30;1022.1;;;17.7;54.9
45789;BME280;31492;54.856;26.318;2023-05-16T18:51:22;1022.2;;;17.6;55.1
45789;BME280;31492;54.856;26.318;2023-05-16T18:56:44;1022.2;;;17.5;55.5
45789;BME280;31492;54.856;26.318;2023-05-16T19:01:36;1022.3;;;17.4;55.6
45789;BME280;31492;54.856;26.318;2023-05-16T19:06:52;1022.4;;;17.4;55.6
45789;BME280;31492;54.856;26.318;2023-05-16T19:11:46;1022.4;;;17.2;55.9
45789;BME280;31492;54.856;26.318;2023-05-16T19:16:48;1022.4;;;17;56.6
45789;BME280;31492;54.856;26.318;2023-05-16T19:21:22;1022.4;;;16.9;56.9
45789;BME280;31492;54.856;26.318;2023-05-16T19:26:38;1022.4;;;16.7;57.6
45789;BME280;31492;54.856;26.318;2023-05-16T19:31:22;1022.5;;;16.6;58.1
45789;BME280;31492;54.856;26.318;2023-05-16T19:36:44;1022.5;;;16.4;58.7
45789;BME280;31492;54.856;26.318;2023-05-16T19:41:22;1022.5;;;16.2;58.8
45789;BME280;31492;54.856;26.318;2023-05-16T19:46:22;1022.5;;;16.1;58.9
45789;BME280;31492;54.856;26.318;2023-05-16T19:51:22;1022.5;;;15.9;59.6
45789;BME280;31492;54.856;26.318;2023-05-16T19:56:22;1022.6;;;15.7;60.4
45789;BME280;31492;54.856;26.318;2023-05-16T20:01:38;1022.7;;;15.6;60.7
45789;BME280;31492;54.856;26.318;2023-05-16T20:06:22;1022.7;;;15.4;61
45789;BME280;31492;54.856;26.318;2023-05-16T20:11:56;1022.7;;;15.3;61.4
45789;BME280;31492;54.856;26.318;2023-05-16T20:16:22;1022.7;;;15.1;61.8
45789;BME280;31492;54.856;26.318;2023-05-16T20:21:34;1022.7;;;15;61.9
45789;BME280;31492;54.856;26.318;2023-05-16T20:26:22;1022.7;;;14.9;62.1
45789;BME280;31492;54.856;26.318;2023-05-16T20:31:48;1022.8;;;14.8;62.4
45789;BME280;31492;54.856;26.318;2023-05-16T20:36:22;1022.8;;;14.7;62.8
45789;BME280;31492;54.856;26.318;2023-05-16T20:41:34;1022.9;;;14.6;63.1
45789;BME280;31492;54.856;26.318;2023-05-16T20:46:38;1022.9;;;14.5;63.2
45789;BME280;31492;54.856;26.318;2023-05-16T20:51:32;1022.9;;;14.4;63.4
45789;BME280;31492;54.856;26.318;2023-05-16T20:56:44;1022.9;;;14.3;63.6
45789;BME280;31492;54.856;26.318;2023-05-16T21:01:22;1022.9;;;14.2;63.8
45789;BME280;31492;54.856;26.318;2023-05-16T21:06:23;1022.9;;;14.2;64
45789;BME280;31492;54.856;26.318;2023-05-16T21:11:22;1022.9;;;14.1;63.9
45789;BME280;31492;54.856;26.318;2023-05-16T21:16:28;1022.9;;;14.1;63.7
45789;BME280;31492;54.856;26.318;2023-05-16T21:21:32;1022.9;;;14.1;64
45789;BME280;31492;54.856;26.318;2023-05-16T21:26:48;1023;;;13.9;64.7
45789;BME280;31492;54.856;26.318;2023-05-16T21:31:22;1023;;;13.8;65.2
45789;BME280;31492;54.856;26.318;2023-05-16T21:36:22;1023;;;13.8;65.2
45789;BME280;31492;54.856;26.318;2023-05-16T21:41:34;1023;;;13.7;65.6
45789;BME280;31492;54.856;26.318;2023-05-16T21:46:42;1023.1;;;13.5;65.8
45789;BME280;31492;54.856;26.318;2023-05-16T21:51:36;1023.1;;;13.4;65.9
45789;BME280;31492;54.856;26.318;2023-05-16T21:56:46;1023.1;;;13.4;65.9
45789;BME280;31492;54.856;26.318;2023-05-16T22:01:31;1023.1;;;13.3;65.7
45789;BME280;31492;54.856;26.318;2023-05-16T22:06:36;1023.2;;;13.2;66.1
45789;BME280;31492;54.856;26.318;2023-05-16T22:11:34;1023.2;;;13.2;66.1
45789;BME280;31492;54.856;26.318;2023-05-16T22:16:22;1023.2;;;13.2;65.9
45789;BME280;31492;54.856;26.318;2023-05-16T22:21:48;1023.2;;;13;66.6
45789;BME280;31492;54.856;26.318;2023-05-16T22:26:22;1023.2;;;13;66.5
45789;BME280;31492;54.856;26.318;2023-05-16T22:31:32;1023.2;;;12.9;66.9
45789;BME280;31492;54.856;26.318;2023-05-16T22:36:32;1023.2;;;12.8;67.2
45789;BME280;31492;54.856;26.318;2023-05-16T22:41:34;1023.3;;;12.8;67.3
45789;BME280;31492;54.856;26.318;2023-05-16T22:46:44;1023.3;;;12.7;67.2
45789;BME280;31492;54.856;26.318;2023-05-16T22:51:22;1023.4;;;12.7;66.6
45789;BME280;31492;54.856;26.318;2023-05-16T22:57:08;1023.3;;;12.7;66.3
45789;BME280;31492;54.856;26.318;2023-05-16T23:01:48;1023.4;;;12.8;66.2
45789;BME280;31492;54.856;26.318;2023-05-16T23:06:40;1023.5;;;12.7;66.8
45789;BME280;31492;54.856;26.318;2023-05-16T23:11:38;1023.5;;;12.6;66.6
45789;BME280;31492;54.856;26.318;2023-05-16T23:16:36;1023.5;;;12.6;67
45789;BME280;31492;54.856;26.318;2023-05-16T23:21:46;1023.6;;;12.5;67.3
45789;BME280;31492;54.856;26.318;2023-05-16T23:26:34;1023.6;;;12.4;67.6
45789;BME280;31492;54.856;26.318;2023-05-16T23:31:22;1023.6;;;12.3;68.1
45789;BME280;31492;54.856;26.318;2023-05-16T23:36:34;1023.7;;;12.2;68
45789;BME280;31492;54.856;26.318;2023-05-16T23:41:32;1023.6;;;12.2;67.9
45789;BME280;31492;54.856;26.318;2023-05-16T23:46:42;1023.7;;;12.2;68.1
45789;BME280;31492;54.856;26.318;2023-05-16T23:51:34;1023.7;;;12.2;68.1
45789;BME280;31492;54.856;26.318;2023-05-16T23:56:32;1023.6;;;12.1;68.4
